sensor_id;sensor_type;location;lat;lon;timestamp;temperature;humidity
17236;DHT22;8734;59.272;17.780;2022-11-20T00:01:59;0.90;99.90
17236;DHT22;8734;59.272;17.780;2022-11-20T00:04:27;0.90;99.90
17236;DHT22;8734;59.272;17.780;2022-11-20T00:06:55;0.80;99.90
17236;DHT22;8734;59.272;17.780;2022-11-20T00:09:23;0.90;99.90
17236;DHT22;8734;59.272;17.780;2022-11-20T00:11:53;0.90;99.90
17236;DHT22;8734;59.272;17.780;2022-11-20T00:14:21;0.80;99.90
17236;DHT22;8734;59.272;17.780;2022-11-20T00:16:50;0.80;99.90
17236;DHT22;8734;59.272;17.780;2022-11-20T00:19:18;0.80;99.90
17236;DHT22;8734;59.272;17.780;2022-11-20T00:21:46;0.80;99.90
17236;DHT22;8734;59.272;17.780;2022-11-20T00:24:14;0.70;99.90
17236;DHT22;8734;59.272;17.780;2022-11-20T00:26:42;0.70;99.90
17236;DHT22;8734;59.272;17.780;2022-11-20T00:29:12;0.70;99.90
17236;DHT22;8734;59.272;17.780;2022-11-20T00:31:40;0.70;99.90
17236;DHT22;8734;59.272;17.780;2022-11-20T00:34:09;0.70;99.90
17236;DHT22;8734;59.272;17.780;2022-11-20T00:36:37;0.70;99.90
17236;DHT22;8734;59.272;17.780;2022-11-20T00:39:05;0.70;99.90
17236;DHT22;8734;59.272;17.780;2022-11-20T00:41:34;0.70;99.90
17236;DHT22;8734;59.272;17.780;2022-11-20T00:44:02;0.70;99.90
17236;DHT22;8734;59.272;17.780;2022-11-20T00:46:31;0.70;99.90
17236;DHT22;8734;59.272;17.780;2022-11-20T00:48:59;0.70;99.90
17236;DHT22;8734;59.272;17.780;2022-11-20T00:51:28;0.60;99.90
17236;DHT22;8734;59.272;17.780;2022-11-20T00:53:57;0.70;99.90
17236;DHT22;8734;59.272;17.780;2022-11-20T00:56:26;0.70;99.90
17236;DHT22;8734;59.272;17.780;2022-11-20T00:58:55;0.60;99.90
17236;DHT22;8734;59.272;17.780;2022-11-20T01:01:25;0.60;99.90
17236;DHT22;8734;59.272;17.780;2022-11-20T01:03:59;0.60;99.90
17236;DHT22;8734;59.272;17.780;2022-11-20T01:06:29;0.60;99.90
17236;DHT22;8734;59.272;17.780;2022-11-20T01:08:59;0.60;99.90
17236;DHT22;8734;59.272;17.780;2022-11-20T01:11:29;0.60;99.90
17236;DHT22;8734;59.272;17.780;2022-11-20T01:14:00;0.60;99.90
17236;DHT22;8734;59.272;17.780;2022-11-20T01:16:32;0.60;99.90
17236;DHT22;8734;59.272;17.780;2022-11-20T01:19:04;0.60;99.90
17236;DHT22;8734;59.272;17.780;2022-11-20T01:21:35;0.60;99.90
17236;DHT22;8734;59.272;17.780;2022-11-20T01:24:05;0.60;99.90
17236;DHT22;8734;59.272;17.780;2022-11-20T01:26:37;0.60;99.90
17236;DHT22;8734;59.272;17.780;2022-11-20T01:29:06;0.60;99.90
17236;DHT22;8734;59.272;17.780;2022-11-20T01:31:36;0.60;99.90
17236;DHT22;8734;59.272;17.780;2022-11-20T01:34:08;0.60;99.90
17236;DHT22;8734;59.272;17.780;2022-11-20T01:36:38;0.60;99.90
17236;DHT22;8734;59.272;17.780;2022-11-20T01:39:09;0.60;99.90
17236;DHT22;8734;59.272;17.780;2022-11-20T01:41:38;0.60;99.90
17236;DHT22;8734;59.272;17.780;2022-11-20T01:47:32;0.60;99.90
17236;DHT22;8734;59.272;17.780;2022-11-20T01:50:08;0.60;99.90
17236;DHT22;8734;59.272;17.780;2022-11-20T01:52:42;0.60;99.90
17236;DHT22;8734;59.272;17.780;2022-11-20T01:55:19;0.60;99.90
17236;DHT22;8734;59.272;17.780;2022-11-20T01:57:50;0.60;99.90
17236;DHT22;8734;59.272;17.780;2022-11-20T02:00:20;0.60;99.90
17236;DHT22;8734;59.272;17.780;2022-11-20T02:02:50;0.60;99.90
17236;DHT22;8734;59.272;17.780;2022-11-20T02:05:32;0.60;99.90
17236;DHT22;8734;59.272;17.780;2022-11-20T02:08:02;0.60;99.90
17236;DHT22;8734;59.272;17.780;2022-11-20T02:10:32;0.60;99.90
17236;DHT22;8734;59.272;17.780;2022-11-20T02:13:01;0.60;99.90
17236;DHT22;8734;59.272;17.780;2022-11-20T02:15:48;0.60;99.90
17236;DHT22;8734;59.272;17.780;2022-11-20T02:18:19;0.60;99.90
17236;DHT22;8734;59.272;17.780;2022-11-20T02:20:53;0.60;99.90
17236;DHT22;8734;59.272;17.780;2022-11-20T02:23:28;0.60;99.90
17236;DHT22;8734;59.272;17.780;2022-11-20T02:26:03;0.60;99.90
17236;DHT22;8734;59.272;17.780;2022-11-20T02:28:33;0.60;99.90
17236;DHT22;8734;59.272;17.780;2022-11-20T02:31:01;0.60;99.90
17236;DHT22;8734;59.272;17.780;2022-11-20T02:33:29;0.60;99.90
17236;DHT22;8734;59.272;17.780;2022-11-20T02:35:58;0.60;99.90
17236;DHT22;8734;59.272;17.780;2022-11-20T02:38:26;0.60;99.90
17236;DHT22;8734;59.272;17.780;2022-11-20T02:40:54;0.50;99.90
17236;DHT22;8734;59.272;17.780;2022-11-20T02:43:24;0.50;99.90
17236;DHT22;8734;59.272;17.780;2022-11-20T02:45:52;0.50;99.90
17236;DHT22;8734;59.272;17.780;2022-11-20T02:48:21;0.50;99.90
17236;DHT22;8734;59.272;17.780;2022-11-20T02:50:51;0.50;99.90
17236;DHT22;8734;59.272;17.780;2022-11-20T02:53:20;0.50;99.90
17236;DHT22;8734;59.272;17.780;2022-11-20T02:55:48;0.50;99.90
17236;DHT22;8734;59.272;17.780;2022-11-20T02:58:17;0.50;99.90
17236;DHT22;8734;59.272;17.780;2022-11-20T03:00:47;0.50;99.90
17236;DHT22;8734;59.272;17.780;2022-11-20T03:03:15;0.50;99.90
17236;DHT22;8734;59.272;17.780;2022-11-20T03:05:43;0.50;99.90
17236;DHT22;8734;59.272;17.780;2022-11-20T03:08:14;0.50;99.90
17236;DHT22;8734;59.272;17.780;2022-11-20T03:10:43;0.50;99.90
17236;DHT22;8734;59.272;17.780;2022-11-20T03:13:11;0.50;99.90
17236;DHT22;8734;59.272;17.780;2022-11-20T03:15:40;0.50;99.90
17236;DHT22;8734;59.272;17.780;2022-11-20T03:18:09;0.50;99.90
17236;DHT22;8734;59.272;17.780;2022-11-20T03:20:38;0.50;99.90
17236;DHT22;8734;59.272;17.780;2022-11-20T03:23:07;0.50;99.90
17236;DHT22;8734;59.272;17.780;2022-11-20T03:25:35;0.50;99.90
17236;DHT22;8734;59.272;17.780;2022-11-20T03:28:04;0.50;99.90
17236;DHT22;8734;59.272;17.780;2022-11-20T03:30:32;0.50;99.90
17236;DHT22;8734;59.272;17.780;2022-11-20T03:33:01;0.50;99.90
17236;DHT22;8734;59.272;17.780;2022-11-20T03:35:30;0.50;99.90
17236;DHT22;8734;59.272;17.780;2022-11-20T03:37:58;0.50;99.90
17236;DHT22;8734;59.272;17.780;2022-11-20T03:40:26;0.50;99.90
17236;DHT22;8734;59.272;17.780;2022-11-20T03:42:57;0.50;99.90
17236;DHT22;8734;59.272;17.780;2022-11-20T03:45:26;0.50;99.90
17236;DHT22;8734;59.272;17.780;2022-11-20T03:47:54;0.50;99.90
17236;DHT22;8734;59.272;17.780;2022-11-20T03:50:22;0.50;99.90
17236;DHT22;8734;59.272;17.780;2022-11-20T03:52:52;0.50;99.90
17236;DHT22;8734;59.272;17.780;2022-11-20T03:55:20;0.50;99.90
17236;DHT22;8734;59.272;17.780;2022-11-20T03:57:49;0.50;99.90
17236;DHT22;8734;59.272;17.780;2022-11-20T04:00:17;0.50;99.90
17236;DHT22;8734;59.272;17.780;2022-11-20T04:02:46;0.50;99.90
17236;DHT22;8734;59.272;17.780;2022-11-20T04:05:14;0.50;99.90
17236;DHT22;8734;59.272;17.780;2022-11-20T04:07:42;0.50;99.90
17236;DHT22;8734;59.272;17.780;2022-11-20T04:10:12;0.50;99.90
17236;DHT22;8734;59.272;17.780;2022-11-20T04:12:40;0.50;99.90
17236;DHT22;8734;59.272;17.780;2022-11-20T04:15:09;0.50;99.90
17236;DHT22;8734;59.272;17.780;2022-11-20T04:17:37;0.50;99.90
17236;DHT22;8734;59.272;17.780;2022-11-20T04:20:07;0.50;99.90
17236;DHT22;8734;59.272;17.780;2022-11-20T04:22:35;0.50;99.90
17236;DHT22;8734;59.272;17.780;2022-11-20T04:25:04;0.50;99.90
17236;DHT22;8734;59.272;17.780;2022-11-20T04:27:34;0.50;99.90
17236;DHT22;8734;59.272;17.780;2022-11-20T04:30:05;0.40;99.90
17236;DHT22;8734;59.272;17.780;2022-11-20T04:32:33;0.50;99.90
17236;DHT22;8734;59.272;17.780;2022-11-20T04:35:01;0.50;99.90
17236;DHT22;8734;59.272;17.780;2022-11-20T04:37:30;0.50;99.90
17236;DHT22;8734;59.272;17.780;2022-11-20T04:39:58;0.50;99.90
17236;DHT22;8734;59.272;17.780;2022-11-20T04:42:26;0.50;99.90
17236;DHT22;8734;59.272;17.780;2022-11-20T04:44:59;0.50;99.90
17236;DHT22;8734;59.272;17.780;2022-11-20T04:47:27;0.50;99.90
17236;DHT22;8734;59.272;17.780;2022-11-20T04:49:56;0.50;99.90
17236;DHT22;8734;59.272;17.780;2022-11-20T04:52:24;0.50;99.90
17236;DHT22;8734;59.272;17.780;2022-11-20T04:54:53;0.50;99.90
17236;DHT22;8734;59.272;17.780;2022-11-20T04:57:23;0.50;99.90
17236;DHT22;8734;59.272;17.780;2022-11-20T04:59:51;0.60;99.90
17236;DHT22;8734;59.272;17.780;2022-11-20T05:02:21;0.60;99.90
17236;DHT22;8734;59.272;17.780;2022-11-20T05:04:49;0.60;99.90
17236;DHT22;8734;59.272;17.780;2022-11-20T05:07:18;0.60;99.90
17236;DHT22;8734;59.272;17.780;2022-11-20T05:09:46;0.60;99.90
17236;DHT22;8734;59.272;17.780;2022-11-20T05:12:14;0.60;99.90
17236;DHT22;8734;59.272;17.780;2022-11-20T05:14:42;0.60;99.90
17236;DHT22;8734;59.272;17.780;2022-11-20T05:17:11;0.70;99.90
17236;DHT22;8734;59.272;17.780;2022-11-20T05:19:41;0.60;99.90
17236;DHT22;8734;59.272;17.780;2022-11-20T05:22:09;0.70;99.90
17236;DHT22;8734;59.272;17.780;2022-11-20T05:24:37;0.60;99.90
17236;DHT22;8734;59.272;17.780;2022-11-20T05:27:05;0.60;99.90
17236;DHT22;8734;59.272;17.780;2022-11-20T05:29:33;0.60;99.90
17236;DHT22;8734;59.272;17.780;2022-11-20T05:32:02;0.60;99.90
17236;DHT22;8734;59.272;17.780;2022-11-20T05:34:31;0.60;99.90
17236;DHT22;8734;59.272;17.780;2022-11-20T05:37:00;0.60;99.90
17236;DHT22;8734;59.272;17.780;2022-11-20T05:39:29;0.70;99.90
17236;DHT22;8734;59.272;17.780;2022-11-20T05:41:57;0.60;99.90
17236;DHT22;8734;59.272;17.780;2022-11-20T05:44:39;0.70;99.90
17236;DHT22;8734;59.272;17.780;2022-11-20T05:47:07;0.70;99.90
17236;DHT22;8734;59.272;17.780;2022-11-20T05:49:35;0.60;99.90
17236;DHT22;8734;59.272;17.780;2022-11-20T05:52:06;0.60;99.90
17236;DHT22;8734;59.272;17.780;2022-11-20T05:54:34;0.60;99.90
17236;DHT22;8734;59.272;17.780;2022-11-20T05:57:02;0.60;99.90
17236;DHT22;8734;59.272;17.780;2022-11-20T05:59:30;0.60;99.90
17236;DHT22;8734;59.272;17.780;2022-11-20T06:01:59;0.60;99.90
17236;DHT22;8734;59.272;17.780;2022-11-20T06:04:27;0.60;99.90
17236;DHT22;8734;59.272;17.780;2022-11-20T06:06:56;0.60;99.90
17236;DHT22;8734;59.272;17.780;2022-11-20T06:09:25;0.60;99.90
17236;DHT22;8734;59.272;17.780;2022-11-20T06:11:53;0.60;99.90
17236;DHT22;8734;59.272;17.780;2022-11-20T06:14:24;0.60;99.90
17236;DHT22;8734;59.272;17.780;2022-11-20T06:16:52;0.70;99.90
17236;DHT22;8734;59.272;17.780;2022-11-20T06:19:20;0.60;99.90
17236;DHT22;8734;59.272;17.780;2022-11-20T06:21:49;0.60;99.90
17236;DHT22;8734;59.272;17.780;2022-11-20T06:24:17;0.60;99.90
17236;DHT22;8734;59.272;17.780;2022-11-20T06:26:47;0.60;99.90
17236;DHT22;8734;59.272;17.780;2022-11-20T06:29:15;0.60;99.90
17236;DHT22;8734;59.272;17.780;2022-11-20T06:31:44;0.60;99.90
17236;DHT22;8734;59.272;17.780;2022-11-20T06:34:12;0.60;99.90
17236;DHT22;8734;59.272;17.780;2022-11-20T06:36:41;0.60;99.90
17236;DHT22;8734;59.272;17.780;2022-11-20T06:39:09;0.60;99.90
17236;DHT22;8734;59.272;17.780;2022-11-20T06:41:38;0.60;99.90
17236;DHT22;8734;59.272;17.780;2022-11-20T06:44:08;0.60;99.90
17236;DHT22;8734;59.272;17.780;2022-11-20T06:46:36;0.60;99.90
17236;DHT22;8734;59.272;17.780;2022-11-20T06:49:04;0.60;99.90
17236;DHT22;8734;59.272;17.780;2022-11-20T06:51:33;0.60;99.90
17236;DHT22;8734;59.272;17.780;2022-11-20T06:54:01;0.70;99.90
17236;DHT22;8734;59.272;17.780;2022-11-20T06:56:30;0.70;99.90
17236;DHT22;8734;59.272;17.780;2022-11-20T06:58:58;0.70;99.90
17236;DHT22;8734;59.272;17.780;2022-11-20T07:01:27;0.70;99.90
17236;DHT22;8734;59.272;17.780;2022-11-20T07:03:56;0.70;99.90
17236;DHT22;8734;59.272;17.780;2022-11-20T07:06:24;0.70;99.90
17236;DHT22;8734;59.272;17.780;2022-11-20T07:08:53;0.70;99.90
17236;DHT22;8734;59.272;17.780;2022-11-20T07:11:21;0.70;99.90
17236;DHT22;8734;59.272;17.780;2022-11-20T07:13:49;0.70;99.90
17236;DHT22;8734;59.272;17.780;2022-11-20T07:16:18;0.70;99.90
17236;DHT22;8734;59.272;17.780;2022-11-20T07:18:48;0.70;99.90
17236;DHT22;8734;59.272;17.780;2022-11-20T07:21:17;0.80;99.90
17236;DHT22;8734;59.272;17.780;2022-11-20T07:23:45;0.70;99.90
17236;DHT22;8734;59.272;17.780;2022-11-20T07:26:14;0.70;99.90
17236;DHT22;8734;59.272;17.780;2022-11-20T07:28:44;0.80;99.90
17236;DHT22;8734;59.272;17.780;2022-11-20T07:31:13;0.80;99.90
17236;DHT22;8734;59.272;17.780;2022-11-20T07:33:46;0.80;99.90
17236;DHT22;8734;59.272;17.780;2022-11-20T07:36:15;0.80;99.90
17236;DHT22;8734;59.272;17.780;2022-11-20T07:38:44;0.80;99.90
17236;DHT22;8734;59.272;17.780;2022-11-20T07:41:13;0.80;99.90
17236;DHT22;8734;59.272;17.780;2022-11-20T07:43:41;0.80;99.90
17236;DHT22;8734;59.272;17.780;2022-11-20T07:46:09;0.90;99.90
17236;DHT22;8734;59.272;17.780;2022-11-20T07:48:37;0.90;99.90
17236;DHT22;8734;59.272;17.780;2022-11-20T07:51:06;0.90;99.90
17236;DHT22;8734;59.272;17.780;2022-11-20T07:53:36;1.00;99.90
17236;DHT22;8734;59.272;17.780;2022-11-20T07:56:05;1.00;99.90
17236;DHT22;8734;59.272;17.780;2022-11-20T07:58:33;1.00;99.90
17236;DHT22;8734;59.272;17.780;2022-11-20T08:01:06;1.00;99.90
17236;DHT22;8734;59.272;17.780;2022-11-20T08:03:35;1.00;99.90
17236;DHT22;8734;59.272;17.780;2022-11-20T08:06:04;1.00;99.90
17236;DHT22;8734;59.272;17.780;2022-11-20T08:08:33;1.00;99.90
17236;DHT22;8734;59.272;17.780;2022-11-20T08:11:09;1.10;99.90
17236;DHT22;8734;59.272;17.780;2022-11-20T08:13:55;1.00;99.90
17236;DHT22;8734;59.272;17.780;2022-11-20T08:16:43;1.00;99.90
17236;DHT22;8734;59.272;17.780;2022-11-20T08:19:14;1.10;99.90
17236;DHT22;8734;59.272;17.780;2022-11-20T08:21:43;1.10;99.90
17236;DHT22;8734;59.272;17.780;2022-11-20T08:24:11;1.10;99.90
17236;DHT22;8734;59.272;17.780;2022-11-20T08:26:41;1.10;99.90
17236;DHT22;8734;59.272;17.780;2022-11-20T08:29:09;1.10;99.90
17236;DHT22;8734;59.272;17.780;2022-11-20T08:31:37;1.10;99.90
17236;DHT22;8734;59.272;17.780;2022-11-20T08:34:06;1.20;99.90
17236;DHT22;8734;59.272;17.780;2022-11-20T08:36:37;1.10;99.90
17236;DHT22;8734;59.272;17.780;2022-11-20T08:39:05;1.10;99.90
17236;DHT22;8734;59.272;17.780;2022-11-20T08:41:34;1.10;99.90
17236;DHT22;8734;59.272;17.780;2022-11-20T08:44:06;1.10;99.90
17236;DHT22;8734;59.272;17.780;2022-11-20T08:46:37;1.10;99.90
17236;DHT22;8734;59.272;17.780;2022-11-20T08:49:07;1.10;99.90
17236;DHT22;8734;59.272;17.780;2022-11-20T08:51:37;1.10;99.90
17236;DHT22;8734;59.272;17.780;2022-11-20T08:54:06;1.10;99.90
17236;DHT22;8734;59.272;17.780;2022-11-20T08:56:35;1.10;99.90
17236;DHT22;8734;59.272;17.780;2022-11-20T08:59:06;1.10;99.90
17236;DHT22;8734;59.272;17.780;2022-11-20T09:01:54;1.20;99.90
17236;DHT22;8734;59.272;17.780;2022-11-20T09:04:23;1.20;99.90
17236;DHT22;8734;59.272;17.780;2022-11-20T09:06:51;1.20;99.90
17236;DHT22;8734;59.272;17.780;2022-11-20T09:09:20;1.30;99.90
17236;DHT22;8734;59.272;17.780;2022-11-20T09:11:49;1.40;99.90
17236;DHT22;8734;59.272;17.780;2022-11-20T09:14:19;1.40;99.90
17236;DHT22;8734;59.272;17.780;2022-11-20T09:16:48;1.30;99.90
17236;DHT22;8734;59.272;17.780;2022-11-20T09:19:16;1.30;99.90
17236;DHT22;8734;59.272;17.780;2022-11-20T09:22:04;1.40;99.90
17236;DHT22;8734;59.272;17.780;2022-11-20T09:24:33;1.40;99.90
17236;DHT22;8734;59.272;17.780;2022-11-20T09:27:03;1.40;99.90
17236;DHT22;8734;59.272;17.780;2022-11-20T09:29:33;1.40;99.90
17236;DHT22;8734;59.272;17.780;2022-11-20T09:32:01;1.40;99.90
17236;DHT22;8734;59.272;17.780;2022-11-20T09:34:30;1.40;99.90
17236;DHT22;8734;59.272;17.780;2022-11-20T09:36:58;1.50;99.90
17236;DHT22;8734;59.272;17.780;2022-11-20T09:39:32;1.50;99.90
17236;DHT22;8734;59.272;17.780;2022-11-20T09:45:09;1.50;99.90
17236;DHT22;8734;59.272;17.780;2022-11-20T09:47:50;1.50;99.90
17236;DHT22;8734;59.272;17.780;2022-11-20T09:50:27;1.50;99.90
17236;DHT22;8734;59.272;17.780;2022-11-20T09:53:12;1.40;99.90
17236;DHT22;8734;59.272;17.780;2022-11-20T09:55:42;1.50;99.90
17236;DHT22;8734;59.272;17.780;2022-11-20T09:58:18;1.50;99.90
17236;DHT22;8734;59.272;17.780;2022-11-20T10:00:50;1.50;99.90
17236;DHT22;8734;59.272;17.780;2022-11-20T10:03:23;1.50;99.90
17236;DHT22;8734;59.272;17.780;2022-11-20T10:05:55;1.50;99.90
17236;DHT22;8734;59.272;17.780;2022-11-20T10:08:25;1.40;99.90
17236;DHT22;8734;59.272;17.780;2022-11-20T10:11:04;1.50;99.90
17236;DHT22;8734;59.272;17.780;2022-11-20T10:13:39;1.50;99.90
17236;DHT22;8734;59.272;17.780;2022-11-20T10:16:21;1.40;99.90
17236;DHT22;8734;59.272;17.780;2022-11-20T10:19:01;1.40;99.90
17236;DHT22;8734;59.272;17.780;2022-11-20T10:21:41;1.40;99.90
17236;DHT22;8734;59.272;17.780;2022-11-20T10:24:30;1.40;99.90
17236;DHT22;8734;59.272;17.780;2022-11-20T10:27:08;1.30;99.90
17236;DHT22;8734;59.272;17.780;2022-11-20T10:29:47;1.30;99.90
17236;DHT22;8734;59.272;17.780;2022-11-20T10:32:19;1.40;99.90
17236;DHT22;8734;59.272;17.780;2022-11-20T10:34:52;1.40;99.90
17236;DHT22;8734;59.272;17.780;2022-11-20T10:37:24;1.40;99.90
17236;DHT22;8734;59.272;17.780;2022-11-20T10:40:01;1.40;99.90
17236;DHT22;8734;59.272;17.780;2022-11-20T10:42:34;1.30;99.90
17236;DHT22;8734;59.272;17.780;2022-11-20T10:45:15;1.40;99.90
17236;DHT22;8734;59.272;17.780;2022-11-20T10:47:48;1.30;99.90
17236;DHT22;8734;59.272;17.780;2022-11-20T10:50:20;1.40;99.90
17236;DHT22;8734;59.272;17.780;2022-11-20T10:52:58;1.30;99.90
17236;DHT22;8734;59.272;17.780;2022-11-20T10:55:39;1.40;99.90
17236;DHT22;8734;59.272;17.780;2022-11-20T10:58:13;1.40;99.90
17236;DHT22;8734;59.272;17.780;2022-11-20T11:00:42;1.40;99.90
17236;DHT22;8734;59.272;17.780;2022-11-20T11:03:23;1.30;99.90
17236;DHT22;8734;59.272;17.780;2022-11-20T11:05:56;1.30;99.90
17236;DHT22;8734;59.272;17.780;2022-11-20T11:08:34;1.30;99.90
17236;DHT22;8734;59.272;17.780;2022-11-20T11:11:15;1.30;99.90
17236;DHT22;8734;59.272;17.780;2022-11-20T11:13:48;1.30;99.90
17236;DHT22;8734;59.272;17.780;2022-11-20T11:16:21;1.30;99.90
17236;DHT22;8734;59.272;17.780;2022-11-20T11:18:51;1.30;99.90
17236;DHT22;8734;59.272;17.780;2022-11-20T11:21:24;1.30;99.90
17236;DHT22;8734;59.272;17.780;2022-11-20T11:23:59;1.30;99.90
17236;DHT22;8734;59.272;17.780;2022-11-20T11:26:53;1.20;99.90
17236;DHT22;8734;59.272;17.780;2022-11-20T11:29:23;1.20;99.90
17236;DHT22;8734;59.272;17.780;2022-11-20T11:32:04;1.30;99.90
17236;DHT22;8734;59.272;17.780;2022-11-20T11:34:34;1.30;99.90
17236;DHT22;8734;59.272;17.780;2022-11-20T11:37:02;1.30;99.90
17236;DHT22;8734;59.272;17.780;2022-11-20T11:39:32;1.30;99.90
17236;DHT22;8734;59.272;17.780;2022-11-20T11:42:01;1.30;99.90
17236;DHT22;8734;59.272;17.780;2022-11-20T11:44:32;1.30;99.90
17236;DHT22;8734;59.272;17.780;2022-11-20T11:47:23;1.30;99.90
17236;DHT22;8734;59.272;17.780;2022-11-20T11:50:13;1.30;99.90
17236;DHT22;8734;59.272;17.780;2022-11-20T11:52:45;1.30;99.90
17236;DHT22;8734;59.272;17.780;2022-11-20T11:55:19;1.30;99.90
17236;DHT22;8734;59.272;17.780;2022-11-20T11:57:55;1.30;99.90
17236;DHT22;8734;59.272;17.780;2022-11-20T12:00:26;1.30;99.90
17236;DHT22;8734;59.272;17.780;2022-11-20T12:03:02;1.30;99.90
17236;DHT22;8734;59.272;17.780;2022-11-20T12:05:40;1.30;99.90
17236;DHT22;8734;59.272;17.780;2022-11-20T12:08:16;1.30;99.90
17236;DHT22;8734;59.272;17.780;2022-11-20T12:10:50;1.30;99.90
17236;DHT22;8734;59.272;17.780;2022-11-20T12:13:31;1.30;99.90
17236;DHT22;8734;59.272;17.780;2022-11-20T12:16:05;1.40;99.90
17236;DHT22;8734;59.272;17.780;2022-11-20T12:18:36;1.40;99.90
17236;DHT22;8734;59.272;17.780;2022-11-20T12:21:17;1.40;99.90
17236;DHT22;8734;59.272;17.780;2022-11-20T12:23:58;1.30;99.90
17236;DHT22;8734;59.272;17.780;2022-11-20T12:26:48;1.30;99.90
17236;DHT22;8734;59.272;17.780;2022-11-20T12:29:30;1.30;99.90
17236;DHT22;8734;59.272;17.780;2022-11-20T12:32:15;1.40;99.90
17236;DHT22;8734;59.272;17.780;2022-11-20T12:34:57;1.30;99.90
17236;DHT22;8734;59.272;17.780;2022-11-20T12:37:45;1.40;99.90
17236;DHT22;8734;59.272;17.780;2022-11-20T12:40:27;1.30;99.90
17236;DHT22;8734;59.272;17.780;2022-11-20T12:43:04;1.40;99.90
17236;DHT22;8734;59.272;17.780;2022-11-20T12:46:16;1.40;99.90
17236;DHT22;8734;59.272;17.780;2022-11-20T12:49:12;1.30;99.90
17236;DHT22;8734;59.272;17.780;2022-11-20T12:52:03;1.30;99.90
17236;DHT22;8734;59.272;17.780;2022-11-20T12:55:07;1.30;99.90
17236;DHT22;8734;59.272;17.780;2022-11-20T12:57:45;1.30;99.90
17236;DHT22;8734;59.272;17.780;2022-11-20T13:00:18;1.20;99.90
17236;DHT22;8734;59.272;17.780;2022-11-20T13:05:59;1.10;99.90
17236;DHT22;8734;59.272;17.780;2022-11-20T13:08:31;1.10;99.90
17236;DHT22;8734;59.272;17.780;2022-11-20T13:11:09;1.10;99.90
17236;DHT22;8734;59.272;17.780;2022-11-20T13:13:55;1.10;99.90
17236;DHT22;8734;59.272;17.780;2022-11-20T13:16:30;1.20;99.90
17236;DHT22;8734;59.272;17.780;2022-11-20T13:19:02;1.10;99.90
17236;DHT22;8734;59.272;17.780;2022-11-20T13:21:37;1.10;99.90
17236;DHT22;8734;59.272;17.780;2022-11-20T13:24:07;1.10;99.90
17236;DHT22;8734;59.272;17.780;2022-11-20T13:26:37;1.10;99.90
17236;DHT22;8734;59.272;17.780;2022-11-20T13:29:11;1.10;99.90
17236;DHT22;8734;59.272;17.780;2022-11-20T13:31:42;1.10;99.90
17236;DHT22;8734;59.272;17.780;2022-11-20T13:34:13;1.10;99.90
17236;DHT22;8734;59.272;17.780;2022-11-20T13:36:49;1.20;99.90
17236;DHT22;8734;59.272;17.780;2022-11-20T13:39:24;1.10;99.90
17236;DHT22;8734;59.272;17.780;2022-11-20T13:41:57;1.20;99.90
17236;DHT22;8734;59.272;17.780;2022-11-20T13:44:30;1.10;99.90
17236;DHT22;8734;59.272;17.780;2022-11-20T13:46:58;1.10;99.90
17236;DHT22;8734;59.272;17.780;2022-11-20T13:49:30;1.10;99.90
17236;DHT22;8734;59.272;17.780;2022-11-20T13:52:15;1.20;99.90
17236;DHT22;8734;59.272;17.780;2022-11-20T13:55:04;1.10;99.90
17236;DHT22;8734;59.272;17.780;2022-11-20T13:58:00;1.10;99.90
17236;DHT22;8734;59.272;17.780;2022-11-20T14:00:30;1.10;99.90
17236;DHT22;8734;59.272;17.780;2022-11-20T14:03:08;1.10;99.90
17236;DHT22;8734;59.272;17.780;2022-11-20T14:05:45;1.10;99.90
17236;DHT22;8734;59.272;17.780;2022-11-20T14:08:23;1.10;99.90
17236;DHT22;8734;59.272;17.780;2022-11-20T14:11:03;1.10;99.90
17236;DHT22;8734;59.272;17.780;2022-11-20T14:13:33;1.00;99.90
17236;DHT22;8734;59.272;17.780;2022-11-20T14:16:01;1.00;99.90
17236;DHT22;8734;59.272;17.780;2022-11-20T14:18:30;1.00;99.90
17236;DHT22;8734;59.272;17.780;2022-11-20T14:21:00;1.00;99.90
17236;DHT22;8734;59.272;17.780;2022-11-20T14:23:30;1.00;99.90
17236;DHT22;8734;59.272;17.780;2022-11-20T14:25:59;1.00;99.90
17236;DHT22;8734;59.272;17.780;2022-11-20T14:28:29;0.90;99.90
17236;DHT22;8734;59.272;17.780;2022-11-20T14:30:59;0.90;99.90
17236;DHT22;8734;59.272;17.780;2022-11-20T14:33:27;0.90;99.90
17236;DHT22;8734;59.272;17.780;2022-11-20T14:35:57;0.90;99.90
17236;DHT22;8734;59.272;17.780;2022-11-20T14:38:29;0.90;99.90
17236;DHT22;8734;59.272;17.780;2022-11-20T14:41:06;0.90;99.90
17236;DHT22;8734;59.272;17.780;2022-11-20T14:43:35;0.90;99.90
17236;DHT22;8734;59.272;17.780;2022-11-20T14:46:09;0.90;99.90
17236;DHT22;8734;59.272;17.780;2022-11-20T14:48:40;0.90;99.90
17236;DHT22;8734;59.272;17.780;2022-11-20T14:51:10;0.80;99.90
17236;DHT22;8734;59.272;17.780;2022-11-20T14:53:39;0.80;99.90
17236;DHT22;8734;59.272;17.780;2022-11-20T14:56:08;0.80;99.90
17236;DHT22;8734;59.272;17.780;2022-11-20T14:58:36;0.70;99.90
17236;DHT22;8734;59.272;17.780;2022-11-20T15:01:11;0.70;99.90
17236;DHT22;8734;59.272;17.780;2022-11-20T15:03:41;0.70;99.90
17236;DHT22;8734;59.272;17.780;2022-11-20T15:06:11;0.70;99.90
17236;DHT22;8734;59.272;17.780;2022-11-20T15:08:50;0.70;99.90
17236;DHT22;8734;59.272;17.780;2022-11-20T15:11:28;0.70;99.90
17236;DHT22;8734;59.272;17.780;2022-11-20T15:14:02;0.70;99.90
17236;DHT22;8734;59.272;17.780;2022-11-20T15:16:33;0.70;99.90
17236;DHT22;8734;59.272;17.780;2022-11-20T15:19:02;0.70;99.90
17236;DHT22;8734;59.272;17.780;2022-11-20T15:21:39;0.60;99.90
17236;DHT22;8734;59.272;17.780;2022-11-20T15:24:09;0.60;99.90
17236;DHT22;8734;59.272;17.780;2022-11-20T15:26:38;0.70;99.90
17236;DHT22;8734;59.272;17.780;2022-11-20T15:29:09;0.60;99.90
17236;DHT22;8734;59.272;17.780;2022-11-20T15:31:39;0.60;99.90
17236;DHT22;8734;59.272;17.780;2022-11-20T15:34:11;0.60;99.90
17236;DHT22;8734;59.272;17.780;2022-11-20T15:36:40;0.60;99.90
17236;DHT22;8734;59.272;17.780;2022-11-20T15:39:08;0.60;99.90
17236;DHT22;8734;59.272;17.780;2022-11-20T15:41:39;0.60;99.90
17236;DHT22;8734;59.272;17.780;2022-11-20T15:44:07;0.60;99.90
17236;DHT22;8734;59.272;17.780;2022-11-20T15:46:39;0.60;99.90
17236;DHT22;8734;59.272;17.780;2022-11-20T15:49:10;0.50;99.90
17236;DHT22;8734;59.272;17.780;2022-11-20T15:51:41;0.50;99.90
17236;DHT22;8734;59.272;17.780;2022-11-20T15:54:14;0.50;99.90
17236;DHT22;8734;59.272;17.780;2022-11-20T15:56:44;0.50;99.90
17236;DHT22;8734;59.272;17.780;2022-11-20T15:59:13;0.40;99.90
17236;DHT22;8734;59.272;17.780;2022-11-20T16:01:44;0.40;99.90
17236;DHT22;8734;59.272;17.780;2022-11-20T16:04:13;0.40;99.90
17236;DHT22;8734;59.272;17.780;2022-11-20T16:06:42;0.40;99.90
17236;DHT22;8734;59.272;17.780;2022-11-20T16:09:10;0.40;99.90
17236;DHT22;8734;59.272;17.780;2022-11-20T16:11:39;0.40;99.90
17236;DHT22;8734;59.272;17.780;2022-11-20T16:14:10;0.30;99.90
17236;DHT22;8734;59.272;17.780;2022-11-20T16:16:58;0.30;99.90
17236;DHT22;8734;59.272;17.780;2022-11-20T16:19:27;0.30;99.90
17236;DHT22;8734;59.272;17.780;2022-11-20T16:21:56;0.30;99.90
17236;DHT22;8734;59.272;17.780;2022-11-20T16:24:29;0.30;99.90